Time,TemperatureF,DewpointF,PressureIn,WindDirection,WindDirectionDegrees,WindSpeedMPH,WindSpeedGustMPH,Humidity,HourlyPrecipIn,Conditions,Clouds,dailyrainin,SolarRadiationWatts/m^2,SoftwareType,DateUTC
2013-01-30 00:02:00,42.5,39.0,30.16,ESE,120,1.0,3.0,87,0.00,,,0.00,0,weatherlink.com 1.10,2013-01-30 08:02:00,
2013-01-30 00:18:00,42.6,39.0,30.16,ESE,120,1.0,2.0,86,0.00,,,0.00,0,weatherlink.com 1.10,2013-01-30 08:18:00,
2013-01-30 00:33:00,42.8,39.0,30.16,ESE,117,2.0,4.0,86,0.00,,,0.00,0,weatherlink.com 1.10,2013-01-30 08:33:00,
2013-01-30 00:48:00,42.5,39.0,30.16,ESE,117,1.0,3.0,86,0.00,,,0.00,0,weatherlink.com 1.10,2013-01-30 08:48:00,
2013-01-30 01:03:00,42.6,39.0,30.16,ESE,121,1.0,2.0,86,0.00,,,0.00,0,weatherlink.com 1.10,2013-01-30 09:03:00,
2013-01-30 01:18:00,42.2,39.0,30.16,ESE,120,1.0,3.0,87,0.00,,,0.00,0,weatherlink.com 1.10,2013-01-30 09:18:00,
2013-01-30 01:33:00,42.5,39.0,30.16,ESE,120,1.0,2.0,87,0.00,,,0.00,0,weatherlink.com 1.10,2013-01-30 09:33:00,
2013-01-30 01:48:00,42.4,39.0,30.16,ESE,120,0.0,1.0,87,0.00,,,0.00,0,weatherlink.com 1.10,2013-01-30 09:48:00,
2013-01-30 02:03:00,41.6,38.0,30.16,ESE,120,0.0,1.0,88,0.00,,,0.00,0,weatherlink.com 1.10,2013-01-30 10:03:00,
2013-01-30 02:18:00,41.8,39.0,30.16,East,98,0.0,1.0,88,0.00,,,0.00,0,weatherlink.com 1.10,2013-01-30 10:18:00,
2013-01-30 02:33:00,41.2,38.0,30.16,East,98,0.0,0.0,89,0.00,,,0.00,0,weatherlink.com 1.10,2013-01-30 10:33:00,
2013-01-30 02:48:00,40.2,37.0,30.16,East,98,0.0,1.0,89,0.00,,,0.00,0,weatherlink.com 1.10,2013-01-30 10:48:00,
2013-01-30 03:03:00,39.8,37.0,30.16,East,98,0.0,0.0,90,0.00,,,0.00,0,weatherlink.com 1.10,2013-01-30 11:03:00,
2013-01-30 03:18:00,39.4,37.0,30.16,East,98,0.0,0.0,91,0.00,,,0.00,0,weatherlink.com 1.10,2013-01-30 11:18:00,
2013-01-30 03:33:00,39.2,37.0,30.15,East,98,0.0,0.0,91,0.00,,,0.00,0,weatherlink.com 1.10,2013-01-30 11:33:00,
2013-01-30 03:48:00,38.9,37.0,30.16,NNW,348,2.0,2.0,91,0.00,,,0.00,0,weatherlink.com 1.10,2013-01-30 11:48:00,
2013-01-30 04:03:00,38.6,36.0,30.15,ESE,123,0.0,2.0,91,0.00,,,0.00,0,weatherlink.com 1.10,2013-01-30 12:03:00,
2013-01-30 04:18:00,38.7,37.0,30.15,ESE,108,0.0,1.0,92,0.00,,,0.00,0,weatherlink.com 1.10,2013-01-30 12:18:00,
2013-01-30 04:33:00,38.6,37.0,30.15,SSW,208,0.0,2.0,92,0.00,,,0.00,0,weatherlink.com 1.10,2013-01-30 12:33:00,
2013-01-30 04:48:00,38.6,37.0,30.16,ESE,107,0.0,2.0,92,0.00,,,0.00,0,weatherlink.com 1.10,2013-01-30 12:48:00,
2013-01-30 05:03:00,38.8,37.0,30.16,East,92,1.0,4.0,92,0.00,,,0.00,0,weatherlink.com 1.10,2013-01-30 13:03:00,
2013-01-30 05:18:00,39.0,37.0,30.16,East,92,0.0,2.0,91,0.00,,,0.00,0,weatherlink.com 1.10,2013-01-30 13:18:00,
2013-01-30 05:33:00,38.9,37.0,30.16,ESE,103,2.0,2.0,91,0.00,,,0.00,0,weatherlink.com 1.10,2013-01-30 13:33:00,
2013-01-30 05:48:00,38.9,37.0,30.16,ESE,103,0.0,2.0,91,0.00,,,0.00,0,weatherlink.com 1.10,2013-01-30 13:48:00,
2013-01-30 06:03:00,38.5,36.0,30.17,ESE,103,0.0,0.0,91,0.00,,,0.00,0,weatherlink.com 1.10,2013-01-30 14:03:00,
2013-01-30 06:18:00,38.8,37.0,30.17,ESE,103,0.0,0.0,92,0.00,,,0.00,0,weatherlink.com 1.10,2013-01-30 14:18:00,
2013-01-30 06:33:00,38.8,37.0,30.18,ESE,103,0.0,1.0,92,0.00,,,0.00,0,weatherlink.com 1.10,2013-01-30 14:33:00,
2013-01-30 06:49:00,38.1,36.0,30.18,East,97,0.0,1.0,91,0.00,,,0.00,0,weatherlink.com 1.10,2013-01-30 14:49:00,
2013-01-30 07:04:00,37.9,36.0,30.19,East,97,0.0,0.0,92,0.00,,,0.00,0,weatherlink.com 1.10,2013-01-30 15:04:00,
2013-01-30 07:18:00,37.8,36.0,30.19,East,97,0.0,1.0,92,0.00,,,0.00,7,weatherlink.com 1.10,2013-01-30 15:18:00,
2013-01-30 07:33:00,39.1,37.0,30.20,ESE,106,2.0,2.0,92,0.00,,,0.00,14,weatherlink.com 1.10,2013-01-30 15:33:00,
2013-01-30 07:49:00,40.3,38.0,30.20,SE,124,1.0,3.0,91,0.00,,,0.00,19,weatherlink.com 1.10,2013-01-30 15:49:00,
2013-01-30 08:03:00,41.3,38.0,30.20,ESE,111,1.0,2.0,89,0.00,,,0.00,39,weatherlink.com 1.10,2013-01-30 16:03:00,
2013-01-30 08:19:00,42.9,39.0,30.21,ESE,114,3.0,3.0,87,0.00,,,0.00,25,weatherlink.com 1.10,2013-01-30 16:19:00,
2013-01-30 08:34:00,44.5,40.0,30.21,ESE,118,3.0,4.0,84,0.00,,,0.00,102,weatherlink.com 1.10,2013-01-30 16:34:00,
2013-01-30 08:49:00,46.2,41.0,30.22,ESE,123,1.0,3.0,83,0.00,,,0.00,79,weatherlink.com 1.10,2013-01-30 16:49:00,
2013-01-30 09:04:00,47.7,42.0,30.22,ESE,123,0.0,2.0,80,0.00,,,0.00,109,weatherlink.com 1.10,2013-01-30 17:04:00,
2013-01-30 09:19:00,49.2,42.0,30.22,ESE,110,0.0,2.0,77,0.00,,,0.00,86,weatherlink.com 1.10,2013-01-30 17:19:00,
2013-01-30 09:34:00,50.5,43.0,30.23,ESE,110,0.0,1.0,74,0.00,,,0.00,332,weatherlink.com 1.10,2013-01-30 17:34:00,
2013-01-30 09:49:00,51.7,44.0,30.23,ESE,110,0.0,1.0,74,0.00,,,0.00,40,weatherlink.com 1.10,2013-01-30 17:49:00,
2013-01-30 10:04:00,53.0,44.0,30.23,SE,131,0.0,2.0,71,0.00,,,0.00,40,weatherlink.com 1.10,2013-01-30 18:04:00,
2013-01-30 10:19:00,54.4,44.0,30.23,ESE,121,0.0,1.0,68,0.00,,,0.00,432,weatherlink.com 1.10,2013-01-30 18:19:00,
2013-01-30 10:34:00,55.7,45.0,30.22,ENE,59,0.0,1.0,67,0.00,,,0.00,461,weatherlink.com 1.10,2013-01-30 18:34:00,
2013-01-30 10:49:00,56.2,44.0,30.22,West,264,1.0,3.0,65,0.00,,,0.00,485,weatherlink.com 1.10,2013-01-30 18:49:00,
2013-01-30 11:04:00,57.2,45.0,30.22,WSW,256,1.0,4.0,63,0.00,,,0.00,506,weatherlink.com 1.10,2013-01-30 19:04:00,
2013-01-30 11:19:00,57.7,45.0,30.22,NW,308,3.0,5.0,62,0.00,,,0.00,524,weatherlink.com 1.10,2013-01-30 19:19:00,
2013-01-30 11:35:00,58.9,44.0,30.21,West,277,1.0,4.0,58,0.00,,,0.00,541,weatherlink.com 1.10,2013-01-30 19:35:00,
2013-01-30 11:50:00,60.5,44.0,30.21,West,259,0.0,3.0,54,0.00,,,0.00,554,weatherlink.com 1.10,2013-01-30 19:50:00,
2013-01-30 12:05:00,60.8,42.0,30.20,WNW,299,3.0,5.0,51,0.00,,,0.00,559,weatherlink.com 1.10,2013-01-30 20:05:00,
2013-01-30 12:19:00,61.6,42.0,30.19,SW,234,4.0,7.0,49,0.00,,,0.00,561,weatherlink.com 1.10,2013-01-30 20:19:00,
2013-01-30 12:34:00,61.7,43.0,30.18,WNW,288,1.0,6.0,50,0.00,,,0.00,561,weatherlink.com 1.10,2013-01-30 20:34:00,
2013-01-30 12:50:00,62.2,44.0,30.18,WNW,302,0.0,6.0,52,0.00,,,0.00,555,weatherlink.com 1.10,2013-01-30 20:50:00,
2013-01-30 13:05:00,63.1,45.0,30.17,WNW,292,3.0,6.0,52,0.00,,,0.00,548,weatherlink.com 1.10,2013-01-30 21:05:00,
2013-01-30 13:20:00,63.2,44.0,30.16,West,260,4.0,8.0,50,0.00,,,0.00,540,weatherlink.com 1.10,2013-01-30 21:20:00,
2013-01-30 13:35:00,63.7,43.0,30.15,WSW,247,4.0,5.0,47,0.00,,,0.00,522,weatherlink.com 1.10,2013-01-30 21:35:00,
2013-01-30 13:50:00,64.4,44.0,30.14,West,280,0.0,6.0,48,0.00,,,0.00,504,weatherlink.com 1.10,2013-01-30 21:50:00,
2013-01-30 14:35:00,65.4,43.0,30.14,WNW,290,3.0,5.0,44,0.00,,,0.00,429,weatherlink.com 1.10,2013-01-30 22:35:00,
2013-01-30 14:50:00,66.0,43.0,30.14,WNW,288,3.0,5.0,43,0.00,,,0.00,397,weatherlink.com 1.10,2013-01-30 22:50:00,
2013-01-30 15:05:00,66.1,43.0,30.14,WNW,298,4.0,5.0,43,0.00,,,0.00,362,weatherlink.com 1.10,2013-01-30 23:05:00,
2013-01-30 15:20:00,65.9,44.0,30.14,WSW,238,1.0,4.0,45,0.00,,,0.00,327,weatherlink.com 1.10,2013-01-30 23:20:00,
2013-01-30 15:35:00,66.1,43.0,30.14,WSW,240,2.0,3.0,44,0.00,,,0.00,287,weatherlink.com 1.10,2013-01-30 23:35:00,
2013-01-30 15:50:00,66.3,43.0,30.13,West,280,1.0,2.0,43,0.00,,,0.00,244,weatherlink.com 1.10,2013-01-30 23:50:00,
2013-01-30 16:05:00,66.2,44.0,30.13,SW,233,2.0,5.0,45,0.00,,,0.00,192,weatherlink.com 1.10,2013-01-31 00:05:00,
2013-01-30 16:20:00,66.1,45.0,30.13,SW,236,3.0,4.0,46,0.00,,,0.00,141,weatherlink.com 1.10,2013-01-31 00:20:00,
2013-01-30 16:35:00,66.1,45.0,30.13,NW,324,1.0,6.0,46,0.00,,,0.00,90,weatherlink.com 1.10,2013-01-31 00:35:00,
2013-01-30 16:50:00,65.4,44.0,30.13,WNW,303,2.0,4.0,47,0.00,,,0.00,47,weatherlink.com 1.10,2013-01-31 00:50:00,
2013-01-30 17:05:00,63.1,44.0,30.13,WNW,286,0.0,1.0,51,0.00,,,0.00,16,weatherlink.com 1.10,2013-01-31 01:05:00,
2013-01-30 17:20:00,62.0,45.0,30.13,WNW,286,0.0,1.0,54,0.00,,,0.00,9,weatherlink.com 1.10,2013-01-31 01:20:00,
2013-01-30 17:35:00,60.6,45.0,30.12,WSW,248,1.0,3.0,57,0.00,,,0.00,0,weatherlink.com 1.10,2013-01-31 01:35:00,
2013-01-30 17:50:00,59.5,45.0,30.12,WSW,253,0.0,2.0,60,0.00,,,0.00,0,weatherlink.com 1.10,2013-01-31 01:50:00,
2013-01-30 18:05:00,58.7,46.0,30.12,West,261,0.0,1.0,62,0.00,,,0.00,0,weatherlink.com 1.10,2013-01-31 02:05:00,
2013-01-30 18:20:00,56.3,45.0,30.13,West,261,0.0,0.0,67,0.00,,,0.00,0,weatherlink.com 1.10,2013-01-31 02:20:00,
2013-01-30 18:35:00,55.2,45.0,30.13,West,261,0.0,0.0,68,0.00,,,0.00,0,weatherlink.com 1.10,2013-01-31 02:35:00,
2013-01-30 18:50:00,53.6,44.0,30.13,East,91,0.0,2.0,71,0.00,,,0.00,0,weatherlink.com 1.10,2013-01-31 02:50:00,
2013-01-30 19:05:00,52.4,44.0,30.13,East,92,0.0,2.0,74,0.00,,,0.00,0,weatherlink.com 1.10,2013-01-31 03:05:00,
2013-01-30 19:20:00,51.8,44.0,30.13,East,92,0.0,1.0,74,0.00,,,0.00,0,weatherlink.com 1.10,2013-01-31 03:20:00,
2013-01-30 19:35:00,51.1,44.0,30.13,East,92,0.0,1.0,76,0.00,,,0.00,0,weatherlink.com 1.10,2013-01-31 03:35:00,
2013-01-30 19:50:00,51.2,44.0,30.13,East,92,1.0,1.0,75,0.00,,,0.00,0,weatherlink.com 1.10,2013-01-31 03:50:00,
2013-01-30 20:05:00,50.8,44.0,30.14,East,101,1.0,1.0,76,0.00,,,0.00,0,weatherlink.com 1.10,2013-01-31 04:05:00,
2013-01-30 20:20:00,50.6,43.0,30.14,ESE,107,0.0,2.0,75,0.00,,,0.00,0,weatherlink.com 1.10,2013-01-31 04:20:00,
2013-01-30 20:35:00,50.1,43.0,30.15,ESE,107,0.0,2.0,76,0.00,,,0.00,0,weatherlink.com 1.10,2013-01-31 04:35:00,
2013-01-30 20:50:00,49.6,43.0,30.15,ESE,107,0.0,2.0,78,0.00,,,0.00,0,weatherlink.com 1.10,2013-01-31 04:50:00,
2013-01-30 21:05:00,49.1,43.0,30.15,ESE,107,1.0,2.0,78,0.00,,,0.00,0,weatherlink.com 1.10,2013-01-31 05:05:00,
2013-01-30 21:20:00,48.3,42.0,30.15,ESE,107,0.0,1.0,79,0.00,,,0.00,0,weatherlink.com 1.10,2013-01-31 05:20:00,
2013-01-30 21:35:00,48.3,42.0,30.14,ESE,107,1.0,2.0,79,0.00,,,0.00,0,weatherlink.com 1.10,2013-01-31 05:35:00,
2013-01-30 21:50:00,47.7,42.0,30.14,ESE,107,1.0,1.0,80,0.00,,,0.00,0,weatherlink.com 1.10,2013-01-31 05:50:00,
2013-01-30 22:05:00,47.0,42.0,30.14,ESE,107,0.0,2.0,82,0.00,,,0.00,0,weatherlink.com 1.10,2013-01-31 06:05:00,
2013-01-30 22:20:00,46.9,42.0,30.14,ESE,114,1.0,3.0,82,0.00,,,0.00,0,weatherlink.com 1.10,2013-01-31 06:20:00,
2013-01-30 22:35:00,46.5,42.0,30.15,ESE,114,1.0,2.0,83,0.00,,,0.00,0,weatherlink.com 1.10,2013-01-31 06:35:00,
2013-01-30 22:50:00,46.3,41.0,30.15,ESE,114,2.0,3.0,83,0.00,,,0.00,0,weatherlink.com 1.10,2013-01-31 06:50:00,
2013-01-30 23:05:00,46.1,41.0,30.15,ESE,108,1.0,3.0,83,0.00,,,0.00,0,weatherlink.com 1.10,2013-01-31 07:05:00,
2013-01-30 23:20:00,45.9,41.0,30.16,ESE,113,1.0,3.0,83,0.00,,,0.00,0,weatherlink.com 1.10,2013-01-31 07:20:00,
2013-01-30 23:35:00,45.6,41.0,30.16,East,101,1.0,2.0,83,0.00,,,0.00,0,weatherlink.com 1.10,2013-01-31 07:35:00,
2013-01-30 23:51:00,44.9,40.0,30.16,ESE,107,1.0,2.0,84,0.00,,,0.00,0,weatherlink.com 1.10,2013-01-31 07:51:00,